sensor_id;sensor_type;location;lat;lon;timestamp;temperature;humidity
7476;DHT22;3779;49.216;8.650;2023-02-12T00:00:42;17.50;38.50
7476;DHT22;3779;49.216;8.650;2023-02-12T00:03:28;17.50;38.60
7476;DHT22;3779;49.216;8.650;2023-02-12T00:06:14;17.50;38.50
7476;DHT22;3779;49.216;8.650;2023-02-12T00:09:00;17.60;38.60
7476;DHT22;3779;49.216;8.650;2023-02-12T00:11:46;17.50;38.50
7476;DHT22;3779;49.216;8.650;2023-02-12T00:14:35;17.50;38.50
7476;DHT22;3779;49.216;8.650;2023-02-12T00:17:22;17.40;38.60
7476;DHT22;3779;49.216;8.650;2023-02-12T00:20:09;17.40;38.60
7476;DHT22;3779;49.216;8.650;2023-02-12T00:22:55;17.50;38.60
7476;DHT22;3779;49.216;8.650;2023-02-12T00:25:41;17.50;38.50
7476;DHT22;3779;49.216;8.650;2023-02-12T00:28:27;17.40;38.50
7476;DHT22;3779;49.216;8.650;2023-02-12T00:31:20;17.40;38.60
7476;DHT22;3779;49.216;8.650;2023-02-12T00:34:08;17.40;38.60
7476;DHT22;3779;49.216;8.650;2023-02-12T00:36:55;17.40;38.60
7476;DHT22;3779;49.216;8.650;2023-02-12T00:39:41;17.40;38.40
7476;DHT22;3779;49.216;8.650;2023-02-12T00:42:27;17.40;38.50
7476;DHT22;3779;49.216;8.650;2023-02-12T00:45:15;17.40;38.60
7476;DHT22;3779;49.216;8.650;2023-02-12T00:48:01;17.40;38.70
7476;DHT22;3779;49.216;8.650;2023-02-12T00:50:48;17.40;38.60
7476;DHT22;3779;49.216;8.650;2023-02-12T00:53:35;17.40;38.40
7476;DHT22;3779;49.216;8.650;2023-02-12T00:56:22;17.40;38.60
7476;DHT22;3779;49.216;8.650;2023-02-12T00:59:09;17.40;38.60
7476;DHT22;3779;49.216;8.650;2023-02-12T01:01:55;17.40;38.50
7476;DHT22;3779;49.216;8.650;2023-02-12T01:04:43;17.40;38.60
7476;DHT22;3779;49.216;8.650;2023-02-12T01:07:29;17.40;38.60
7476;DHT22;3779;49.216;8.650;2023-02-12T01:10:15;17.40;38.60
7476;DHT22;3779;49.216;8.650;2023-02-12T01:13:01;17.40;38.60
7476;DHT22;3779;49.216;8.650;2023-02-12T01:15:48;17.50;38.70
7476;DHT22;3779;49.216;8.650;2023-02-12T01:18:36;17.50;38.60
7476;DHT22;3779;49.216;8.650;2023-02-12T01:21:26;17.50;38.70
7476;DHT22;3779;49.216;8.650;2023-02-12T01:24:13;17.40;38.60
7476;DHT22;3779;49.216;8.650;2023-02-12T01:26:59;17.40;38.50
7476;DHT22;3779;49.216;8.650;2023-02-12T01:29:47;17.80;39.00
7476;DHT22;3779;49.216;8.650;2023-02-12T01:32:33;17.50;38.60
7476;DHT22;3779;49.216;8.650;2023-02-12T01:35:19;17.50;38.50
7476;DHT22;3779;49.216;8.650;2023-02-12T01:38:05;17.40;38.40
7476;DHT22;3779;49.216;8.650;2023-02-12T01:40:52;17.40;38.40
7476;DHT22;3779;49.216;8.650;2023-02-12T01:43:39;17.40;38.50
7476;DHT22;3779;49.216;8.650;2023-02-12T01:46:25;17.40;39.20
7476;DHT22;3779;49.216;8.650;2023-02-12T01:49:18;17.40;38.40
7476;DHT22;3779;49.216;8.650;2023-02-12T01:52:17;17.50;38.80
7476;DHT22;3779;49.216;8.650;2023-02-12T01:55:07;17.40;38.90
7476;DHT22;3779;49.216;8.650;2023-02-12T01:57:54;17.40;38.70
7476;DHT22;3779;49.216;8.650;2023-02-12T02:00:40;17.40;38.60
7476;DHT22;3779;49.216;8.650;2023-02-12T02:03:26;17.40;38.50
7476;DHT22;3779;49.216;8.650;2023-02-12T02:06:24;17.40;38.60
7476;DHT22;3779;49.216;8.650;2023-02-12T02:09:16;17.40;38.80
7476;DHT22;3779;49.216;8.650;2023-02-12T02:12:03;17.40;38.70
7476;DHT22;3779;49.216;8.650;2023-02-12T02:15:08;17.40;38.50
7476;DHT22;3779;49.216;8.650;2023-02-12T02:18:23;17.40;38.60
7476;DHT22;3779;49.216;8.650;2023-02-12T02:25:35;17.40;39.10
7476;DHT22;3779;49.216;8.650;2023-02-12T02:31:46;17.40;38.90
7476;DHT22;3779;49.216;8.650;2023-02-12T02:34:41;17.40;38.80
7476;DHT22;3779;49.216;8.650;2023-02-12T02:37:38;17.40;38.90
7476;DHT22;3779;49.216;8.650;2023-02-12T02:40:48;17.40;38.80
7476;DHT22;3779;49.216;8.650;2023-02-12T02:43:43;17.40;38.80
7476;DHT22;3779;49.216;8.650;2023-02-12T02:46:46;17.40;38.80
7476;DHT22;3779;49.216;8.650;2023-02-12T02:49:38;17.40;38.70
7476;DHT22;3779;49.216;8.650;2023-02-12T02:52:59;17.50;39.00
7476;DHT22;3779;49.216;8.650;2023-02-12T02:55:50;17.40;39.40
7476;DHT22;3779;49.216;8.650;2023-02-12T02:58:45;17.40;38.90
7476;DHT22;3779;49.216;8.650;2023-02-12T03:01:35;17.40;38.80
7476;DHT22;3779;49.216;8.650;2023-02-12T03:04:42;17.40;38.80
7476;DHT22;3779;49.216;8.650;2023-02-12T03:07:44;17.40;39.80
7476;DHT22;3779;49.216;8.650;2023-02-12T03:10:37;17.50;39.00
7476;DHT22;3779;49.216;8.650;2023-02-12T03:13:47;17.60;38.50
7476;DHT22;3779;49.216;8.650;2023-02-12T03:16:39;17.70;38.60
7476;DHT22;3779;49.216;8.650;2023-02-12T03:19:32;17.80;38.20
7476;DHT22;3779;49.216;8.650;2023-02-12T03:22:24;17.60;38.40
7476;DHT22;3779;49.216;8.650;2023-02-12T03:25:15;17.50;38.60
7476;DHT22;3779;49.216;8.650;2023-02-12T03:28:10;17.50;38.80
7476;DHT22;3779;49.216;8.650;2023-02-12T03:37:26;17.40;39.00
7476;DHT22;3779;49.216;8.650;2023-02-12T03:43:29;17.40;39.20
7476;DHT22;3779;49.216;8.650;2023-02-12T03:49:41;17.40;39.20
7476;DHT22;3779;49.216;8.650;2023-02-12T03:52:30;17.50;39.80
7476;DHT22;3779;49.216;8.650;2023-02-12T03:55:17;17.60;39.00
7476;DHT22;3779;49.216;8.650;2023-02-12T03:58:07;17.50;38.80
7476;DHT22;3779;49.216;8.650;2023-02-12T04:00:54;17.50;39.00
7476;DHT22;3779;49.216;8.650;2023-02-12T04:03:41;17.50;39.00
7476;DHT22;3779;49.216;8.650;2023-02-12T04:06:28;17.50;39.00
7476;DHT22;3779;49.216;8.650;2023-02-12T04:09:14;17.40;38.70
7476;DHT22;3779;49.216;8.650;2023-02-12T04:18:43;17.40;39.40
7476;DHT22;3779;49.216;8.650;2023-02-12T04:21:43;17.40;39.50
7476;DHT22;3779;49.216;8.650;2023-02-12T04:30:54;17.70;39.30
7476;DHT22;3779;49.216;8.650;2023-02-12T04:33:46;17.70;39.50
7476;DHT22;3779;49.216;8.650;2023-02-12T04:36:48;17.40;39.10
7476;DHT22;3779;49.216;8.650;2023-02-12T04:39:37;17.40;39.10
7476;DHT22;3779;49.216;8.650;2023-02-12T04:42:25;17.40;39.10
7476;DHT22;3779;49.216;8.650;2023-02-12T04:45:15;17.40;39.10
7476;DHT22;3779;49.216;8.650;2023-02-12T04:48:02;17.40;39.30
7476;DHT22;3779;49.216;8.650;2023-02-12T04:50:48;17.40;39.20
7476;DHT22;3779;49.216;8.650;2023-02-12T04:53:34;17.50;39.10
7476;DHT22;3779;49.216;8.650;2023-02-12T04:56:20;17.50;39.20
7476;DHT22;3779;49.216;8.650;2023-02-12T04:59:06;17.50;39.10
7476;DHT22;3779;49.216;8.650;2023-02-12T05:01:52;17.50;39.10
7476;DHT22;3779;49.216;8.650;2023-02-12T05:04:38;17.50;39.20
7476;DHT22;3779;49.216;8.650;2023-02-12T05:07:24;17.60;39.30
7476;DHT22;3779;49.216;8.650;2023-02-12T05:10:10;17.50;39.10
7476;DHT22;3779;49.216;8.650;2023-02-12T05:12:56;17.50;39.20
7476;DHT22;3779;49.216;8.650;2023-02-12T05:15:42;17.50;39.20
7476;DHT22;3779;49.216;8.650;2023-02-12T05:18:28;17.50;39.10
7476;DHT22;3779;49.216;8.650;2023-02-12T05:21:14;17.50;39.30
7476;DHT22;3779;49.216;8.650;2023-02-12T05:24:01;17.50;39.40
7476;DHT22;3779;49.216;8.650;2023-02-12T05:26:50;17.50;39.30
7476;DHT22;3779;49.216;8.650;2023-02-12T05:29:36;17.50;39.10
7476;DHT22;3779;49.216;8.650;2023-02-12T05:32:23;17.50;39.10
7476;DHT22;3779;49.216;8.650;2023-02-12T05:35:09;17.50;39.30
7476;DHT22;3779;49.216;8.650;2023-02-12T05:37:54;17.50;38.50
7476;DHT22;3779;49.216;8.650;2023-02-12T05:40:40;17.50;39.10
7476;DHT22;3779;49.216;8.650;2023-02-12T05:43:30;17.50;39.30
7476;DHT22;3779;49.216;8.650;2023-02-12T05:46:17;17.50;39.40
7476;DHT22;3779;49.216;8.650;2023-02-12T05:49:04;17.50;39.40
7476;DHT22;3779;49.216;8.650;2023-02-12T05:51:50;17.50;39.20
7476;DHT22;3779;49.216;8.650;2023-02-12T05:54:35;17.50;39.20
7476;DHT22;3779;49.216;8.650;2023-02-12T05:57:22;17.40;39.30
7476;DHT22;3779;49.216;8.650;2023-02-12T06:00:08;17.40;39.20
7476;DHT22;3779;49.216;8.650;2023-02-12T06:02:58;17.50;40.00
7476;DHT22;3779;49.216;8.650;2023-02-12T06:05:49;17.40;39.20
7476;DHT22;3779;49.216;8.650;2023-02-12T06:08:35;17.40;39.50
7476;DHT22;3779;49.216;8.650;2023-02-12T06:11:21;17.40;39.20
7476;DHT22;3779;49.216;8.650;2023-02-12T06:14:11;17.40;39.20
7476;DHT22;3779;49.216;8.650;2023-02-12T06:16:59;17.40;39.40
7476;DHT22;3779;49.216;8.650;2023-02-12T06:19:45;17.40;39.30
7476;DHT22;3779;49.216;8.650;2023-02-12T06:22:32;17.40;39.10
7476;DHT22;3779;49.216;8.650;2023-02-12T06:25:18;17.40;39.40
7476;DHT22;3779;49.216;8.650;2023-02-12T06:28:06;17.50;39.70
7476;DHT22;3779;49.216;8.650;2023-02-12T06:30:53;17.50;39.40
7476;DHT22;3779;49.216;8.650;2023-02-12T06:33:39;17.40;39.50
7476;DHT22;3779;49.216;8.650;2023-02-12T06:36:25;17.40;39.40
7476;DHT22;3779;49.216;8.650;2023-02-12T06:39:12;17.50;39.50
7476;DHT22;3779;49.216;8.650;2023-02-12T06:41:59;17.50;39.70
7476;DHT22;3779;49.216;8.650;2023-02-12T06:44:46;17.50;39.50
7476;DHT22;3779;49.216;8.650;2023-02-12T06:47:32;17.50;39.50
7476;DHT22;3779;49.216;8.650;2023-02-12T06:50:18;17.50;39.40
7476;DHT22;3779;49.216;8.650;2023-02-12T06:53:05;17.50;39.60
7476;DHT22;3779;49.216;8.650;2023-02-12T06:55:51;17.50;39.60
7476;DHT22;3779;49.216;8.650;2023-02-12T06:58:38;17.50;39.70
7476;DHT22;3779;49.216;8.650;2023-02-12T07:01:27;17.50;39.50
7476;DHT22;3779;49.216;8.650;2023-02-12T07:04:13;17.50;39.50
7476;DHT22;3779;49.216;8.650;2023-02-12T07:06:59;17.50;39.40
7476;DHT22;3779;49.216;8.650;2023-02-12T07:09:46;17.50;39.50
7476;DHT22;3779;49.216;8.650;2023-02-12T07:12:32;17.50;39.50
7476;DHT22;3779;49.216;8.650;2023-02-12T07:15:18;17.50;39.40
7476;DHT22;3779;49.216;8.650;2023-02-12T07:18:04;17.50;39.40
7476;DHT22;3779;49.216;8.650;2023-02-12T07:20:50;17.50;39.50
7476;DHT22;3779;49.216;8.650;2023-02-12T07:23:36;17.50;39.50
7476;DHT22;3779;49.216;8.650;2023-02-12T07:26:22;17.50;39.70
7476;DHT22;3779;49.216;8.650;2023-02-12T07:29:09;17.60;39.70
7476;DHT22;3779;49.216;8.650;2023-02-12T07:31:55;17.50;39.40
7476;DHT22;3779;49.216;8.650;2023-02-12T07:34:40;17.50;39.50
7476;DHT22;3779;49.216;8.650;2023-02-12T07:37:26;17.50;39.60
7476;DHT22;3779;49.216;8.650;2023-02-12T07:40:13;17.60;39.80
7476;DHT22;3779;49.216;8.650;2023-02-12T07:42:59;17.50;39.90
7476;DHT22;3779;49.216;8.650;2023-02-12T07:45:46;17.60;39.90
7476;DHT22;3779;49.216;8.650;2023-02-12T07:48:32;17.60;40.20
7476;DHT22;3779;49.216;8.650;2023-02-12T07:51:18;17.60;40.00
7476;DHT22;3779;49.216;8.650;2023-02-12T07:54:05;17.60;40.00
7476;DHT22;3779;49.216;8.650;2023-02-12T07:56:50;17.60;40.10
7476;DHT22;3779;49.216;8.650;2023-02-12T07:59:36;17.60;40.00
7476;DHT22;3779;49.216;8.650;2023-02-12T08:02:22;17.60;40.00
7476;DHT22;3779;49.216;8.650;2023-02-12T08:05:12;17.60;40.30
7476;DHT22;3779;49.216;8.650;2023-02-12T08:07:58;17.70;40.40
7476;DHT22;3779;49.216;8.650;2023-02-12T08:10:43;17.70;40.10
7476;DHT22;3779;49.216;8.650;2023-02-12T08:13:30;17.70;40.00
7476;DHT22;3779;49.216;8.650;2023-02-12T08:16:20;17.70;40.20
7476;DHT22;3779;49.216;8.650;2023-02-12T08:19:06;17.70;40.30
7476;DHT22;3779;49.216;8.650;2023-02-12T08:21:55;17.70;40.30
7476;DHT22;3779;49.216;8.650;2023-02-12T08:24:41;17.70;40.40
7476;DHT22;3779;49.216;8.650;2023-02-12T08:27:28;17.70;40.10
7476;DHT22;3779;49.216;8.650;2023-02-12T08:30:14;17.70;39.80
7476;DHT22;3779;49.216;8.650;2023-02-12T08:33:00;17.70;39.80
7476;DHT22;3779;49.216;8.650;2023-02-12T08:35:46;17.80;40.20
7476;DHT22;3779;49.216;8.650;2023-02-12T08:38:32;17.70;40.10
7476;DHT22;3779;49.216;8.650;2023-02-12T08:41:23;17.80;40.20
7476;DHT22;3779;49.216;8.650;2023-02-12T08:44:10;17.80;40.20
7476;DHT22;3779;49.216;8.650;2023-02-12T08:46:56;17.90;40.40
7476;DHT22;3779;49.216;8.650;2023-02-12T08:49:42;17.90;40.00
7476;DHT22;3779;49.216;8.650;2023-02-12T08:52:28;17.90;39.80
7476;DHT22;3779;49.216;8.650;2023-02-12T08:55:14;17.90;40.10
7476;DHT22;3779;49.216;8.650;2023-02-12T08:58:00;17.90;39.50
7476;DHT22;3779;49.216;8.650;2023-02-12T09:00:47;17.90;39.30
7476;DHT22;3779;49.216;8.650;2023-02-12T09:03:34;17.90;39.80
7476;DHT22;3779;49.216;8.650;2023-02-12T09:06:23;17.80;39.40
7476;DHT22;3779;49.216;8.650;2023-02-12T09:09:11;17.80;39.60
7476;DHT22;3779;49.216;8.650;2023-02-12T09:11:57;17.80;39.70
7476;DHT22;3779;49.216;8.650;2023-02-12T09:14:44;17.90;39.40
7476;DHT22;3779;49.216;8.650;2023-02-12T09:17:30;17.90;39.50
7476;DHT22;3779;49.216;8.650;2023-02-12T09:20:16;17.80;39.40
7476;DHT22;3779;49.216;8.650;2023-02-12T09:23:03;17.80;39.40
7476;DHT22;3779;49.216;8.650;2023-02-12T09:25:51;17.80;39.60
7476;DHT22;3779;49.216;8.650;2023-02-12T09:28:37;17.90;40.00
7476;DHT22;3779;49.216;8.650;2023-02-12T09:31:26;18.00;40.00
7476;DHT22;3779;49.216;8.650;2023-02-12T09:34:13;18.10;40.80
7476;DHT22;3779;49.216;8.650;2023-02-12T09:36:58;18.20;39.40
7476;DHT22;3779;49.216;8.650;2023-02-12T09:39:44;18.20;39.50
7476;DHT22;3779;49.216;8.650;2023-02-12T09:42:48;18.20;40.10
7476;DHT22;3779;49.216;8.650;2023-02-12T09:45:51;18.20;39.80
7476;DHT22;3779;49.216;8.650;2023-02-12T09:51:29;18.20;39.50
7476;DHT22;3779;49.216;8.650;2023-02-12T09:54:19;18.20;39.70
7476;DHT22;3779;49.216;8.650;2023-02-12T10:00:31;18.30;40.10
7476;DHT22;3779;49.216;8.650;2023-02-12T10:03:17;18.30;40.50
7476;DHT22;3779;49.216;8.650;2023-02-12T10:06:10;18.30;39.90
7476;DHT22;3779;49.216;8.650;2023-02-12T10:09:03;18.30;39.50
7476;DHT22;3779;49.216;8.650;2023-02-12T10:12:30;18.20;39.70
7476;DHT22;3779;49.216;8.650;2023-02-12T10:25:05;18.30;40.20
7476;DHT22;3779;49.216;8.650;2023-02-12T10:27:56;18.30;40.90
7476;DHT22;3779;49.216;8.650;2023-02-12T10:31:02;18.40;39.90
7476;DHT22;3779;49.216;8.650;2023-02-12T10:33:50;18.40;40.40
7476;DHT22;3779;49.216;8.650;2023-02-12T10:36:44;18.40;40.00
7476;DHT22;3779;49.216;8.650;2023-02-12T10:39:41;18.30;40.20
7476;DHT22;3779;49.216;8.650;2023-02-12T10:42:40;18.20;40.20
7476;DHT22;3779;49.216;8.650;2023-02-12T10:45:33;18.20;40.20
7476;DHT22;3779;49.216;8.650;2023-02-12T10:48:24;17.70;40.00
7476;DHT22;3779;49.216;8.650;2023-02-12T10:54:45;18.20;40.20
7476;DHT22;3779;49.216;8.650;2023-02-12T10:57:32;18.20;41.10
7476;DHT22;3779;49.216;8.650;2023-02-12T11:00:23;18.30;40.50
7476;DHT22;3779;49.216;8.650;2023-02-12T11:09:41;18.30;40.60
7476;DHT22;3779;49.216;8.650;2023-02-12T11:12:32;18.20;40.40
7476;DHT22;3779;49.216;8.650;2023-02-12T11:15:23;18.20;40.10
7476;DHT22;3779;49.216;8.650;2023-02-12T11:18:27;18.10;40.90
7476;DHT22;3779;49.216;8.650;2023-02-12T11:21:14;18.20;41.00
7476;DHT22;3779;49.216;8.650;2023-02-12T11:24:30;18.20;41.00
7476;DHT22;3779;49.216;8.650;2023-02-12T11:27:25;18.30;41.00
7476;DHT22;3779;49.216;8.650;2023-02-12T11:30:19;18.30;40.90
7476;DHT22;3779;49.216;8.650;2023-02-12T11:36:21;18.30;41.60
7476;DHT22;3779;49.216;8.650;2023-02-12T11:42:23;18.40;41.90
7476;DHT22;3779;49.216;8.650;2023-02-12T11:45:16;18.50;41.10
7476;DHT22;3779;49.216;8.650;2023-02-12T11:48:12;18.30;40.70
7476;DHT22;3779;49.216;8.650;2023-02-12T11:51:03;18.50;41.70
7476;DHT22;3779;49.216;8.650;2023-02-12T11:53:52;18.20;40.80
7476;DHT22;3779;49.216;8.650;2023-02-12T11:56:44;18.20;41.20
7476;DHT22;3779;49.216;8.650;2023-02-12T11:59:36;18.20;41.40
7476;DHT22;3779;49.216;8.650;2023-02-12T12:02:36;18.20;41.30
7476;DHT22;3779;49.216;8.650;2023-02-12T12:05:30;18.20;41.40
7476;DHT22;3779;49.216;8.650;2023-02-12T12:11:15;18.30;41.30
7476;DHT22;3779;49.216;8.650;2023-02-12T12:14:25;18.30;41.60
7476;DHT22;3779;49.216;8.650;2023-02-12T12:17:15;18.40;41.90
7476;DHT22;3779;49.216;8.650;2023-02-12T12:20:26;18.40;42.20
7476;DHT22;3779;49.216;8.650;2023-02-12T12:23:36;18.40;42.20
7476;DHT22;3779;49.216;8.650;2023-02-12T12:26:26;18.50;42.40
7476;DHT22;3779;49.216;8.650;2023-02-12T12:29:25;18.50;40.70
7476;DHT22;3779;49.216;8.650;2023-02-12T12:32:13;18.50;41.10
7476;DHT22;3779;49.216;8.650;2023-02-12T12:35:01;18.40;40.70
7476;DHT22;3779;49.216;8.650;2023-02-12T12:50:08;18.40;41.40
7476;DHT22;3779;49.216;8.650;2023-02-12T12:57:00;18.40;41.20
7476;DHT22;3779;49.216;8.650;2023-02-12T13:09:19;18.30;41.20
7476;DHT22;3779;49.216;8.650;2023-02-12T13:19:01;18.40;42.20
7476;DHT22;3779;49.216;8.650;2023-02-12T13:22:09;18.20;41.70
7476;DHT22;3779;49.216;8.650;2023-02-12T13:28:02;18.20;41.70
7476;DHT22;3779;49.216;8.650;2023-02-12T13:30:51;18.30;40.80
7476;DHT22;3779;49.216;8.650;2023-02-12T13:33:47;18.30;40.70
7476;DHT22;3779;49.216;8.650;2023-02-12T13:36:35;18.10;42.00
7476;DHT22;3779;49.216;8.650;2023-02-12T13:39:31;18.20;42.60
7476;DHT22;3779;49.216;8.650;2023-02-12T13:45:42;18.40;41.90
7476;DHT22;3779;49.216;8.650;2023-02-12T13:51:55;18.30;41.40
7476;DHT22;3779;49.216;8.650;2023-02-12T13:57:42;18.40;42.70
7476;DHT22;3779;49.216;8.650;2023-02-12T14:03:37;18.50;41.70
7476;DHT22;3779;49.216;8.650;2023-02-12T14:06:23;18.50;41.50
7476;DHT22;3779;49.216;8.650;2023-02-12T14:09:10;18.40;41.80
7476;DHT22;3779;49.216;8.650;2023-02-12T14:12:13;18.50;41.90
7476;DHT22;3779;49.216;8.650;2023-02-12T14:15:25;18.50;42.30
7476;DHT22;3779;49.216;8.650;2023-02-12T14:18:32;18.60;42.10
7476;DHT22;3779;49.216;8.650;2023-02-12T14:24:47;18.60;41.70
7476;DHT22;3779;49.216;8.650;2023-02-12T14:27:40;18.60;41.70
7476;DHT22;3779;49.216;8.650;2023-02-12T14:33:23;18.60;41.20
7476;DHT22;3779;49.216;8.650;2023-02-12T14:44:56;18.50;42.50
7476;DHT22;3779;49.216;8.650;2023-02-12T14:50:42;18.60;41.80
7476;DHT22;3779;49.216;8.650;2023-02-12T14:53:36;18.50;43.00
7476;DHT22;3779;49.216;8.650;2023-02-12T14:56:24;18.60;43.40
7476;DHT22;3779;49.216;8.650;2023-02-12T14:59:15;18.60;42.40
7476;DHT22;3779;49.216;8.650;2023-02-12T15:02:03;18.60;42.30
7476;DHT22;3779;49.216;8.650;2023-02-12T15:04:52;18.70;41.90
7476;DHT22;3779;49.216;8.650;2023-02-12T15:07:58;18.70;41.70
7476;DHT22;3779;49.216;8.650;2023-02-12T15:10:49;18.60;41.80
7476;DHT22;3779;49.216;8.650;2023-02-12T15:16:47;18.60;41.50
7476;DHT22;3779;49.216;8.650;2023-02-12T15:22:39;18.50;41.80
7476;DHT22;3779;49.216;8.650;2023-02-12T15:25:30;18.40;42.80
7476;DHT22;3779;49.216;8.650;2023-02-12T15:28:28;18.50;42.00
7476;DHT22;3779;49.216;8.650;2023-02-12T15:31:28;18.50;42.20
7476;DHT22;3779;49.216;8.650;2023-02-12T15:34:19;18.40;41.90
7476;DHT22;3779;49.216;8.650;2023-02-12T15:37:14;18.60;42.70
7476;DHT22;3779;49.216;8.650;2023-02-12T15:40:02;18.40;42.10
7476;DHT22;3779;49.216;8.650;2023-02-12T15:42:56;18.50;41.90
7476;DHT22;3779;49.216;8.650;2023-02-12T15:45:50;18.40;42.10
7476;DHT22;3779;49.216;8.650;2023-02-12T15:48:37;18.40;43.10
7476;DHT22;3779;49.216;8.650;2023-02-12T15:54:13;18.40;42.20
7476;DHT22;3779;49.216;8.650;2023-02-12T15:57:09;18.40;42.60
7476;DHT22;3779;49.216;8.650;2023-02-12T16:00:02;18.50;42.40
7476;DHT22;3779;49.216;8.650;2023-02-12T16:02:58;18.50;42.20
7476;DHT22;3779;49.216;8.650;2023-02-12T16:05:45;18.50;42.90
7476;DHT22;3779;49.216;8.650;2023-02-12T16:08:33;18.60;42.20
7476;DHT22;3779;49.216;8.650;2023-02-12T16:11:21;19.00;42.60
7476;DHT22;3779;49.216;8.650;2023-02-12T16:14:21;18.50;42.50
7476;DHT22;3779;49.216;8.650;2023-02-12T16:17:28;18.60;43.30
7476;DHT22;3779;49.216;8.650;2023-02-12T16:23:04;18.80;42.40
7476;DHT22;3779;49.216;8.650;2023-02-12T16:25:54;18.60;42.30
7476;DHT22;3779;49.216;8.650;2023-02-12T16:28:47;18.60;41.70
7476;DHT22;3779;49.216;8.650;2023-02-12T16:31:34;18.60;42.30
7476;DHT22;3779;49.216;8.650;2023-02-12T16:34:56;18.50;41.80
7476;DHT22;3779;49.216;8.650;2023-02-12T16:38:00;18.50;42.20
7476;DHT22;3779;49.216;8.650;2023-02-12T16:41:14;18.50;42.30
7476;DHT22;3779;49.216;8.650;2023-02-12T16:46:54;18.40;41.40
7476;DHT22;3779;49.216;8.650;2023-02-12T16:49:55;18.40;41.90
7476;DHT22;3779;49.216;8.650;2023-02-12T16:52:41;18.40;42.30
7476;DHT22;3779;49.216;8.650;2023-02-12T16:55:27;18.40;42.20
7476;DHT22;3779;49.216;8.650;2023-02-12T16:58:13;18.40;41.70
7476;DHT22;3779;49.216;8.650;2023-02-12T17:01:03;18.30;40.60
7476;DHT22;3779;49.216;8.650;2023-02-12T17:03:49;18.30;41.20
7476;DHT22;3779;49.216;8.650;2023-02-12T17:06:35;18.30;41.40
7476;DHT22;3779;49.216;8.650;2023-02-12T17:09:21;18.20;40.70
7476;DHT22;3779;49.216;8.650;2023-02-12T17:12:07;18.20;41.30
7476;DHT22;3779;49.216;8.650;2023-02-12T17:14:53;18.20;41.10
7476;DHT22;3779;49.216;8.650;2023-02-12T17:17:40;18.20;41.30
7476;DHT22;3779;49.216;8.650;2023-02-12T17:20:26;18.20;40.90
7476;DHT22;3779;49.216;8.650;2023-02-12T17:23:12;18.10;40.90
7476;DHT22;3779;49.216;8.650;2023-02-12T17:25:58;18.20;41.30
7476;DHT22;3779;49.216;8.650;2023-02-12T17:28:45;18.20;41.00
7476;DHT22;3779;49.216;8.650;2023-02-12T17:31:32;18.20;40.50
7476;DHT22;3779;49.216;8.650;2023-02-12T17:34:18;18.10;40.80
7476;DHT22;3779;49.216;8.650;2023-02-12T17:37:05;18.10;40.50
7476;DHT22;3779;49.216;8.650;2023-02-12T17:39:51;18.00;40.40
7476;DHT22;3779;49.216;8.650;2023-02-12T17:42:37;18.00;40.40
7476;DHT22;3779;49.216;8.650;2023-02-12T17:45:24;18.00;40.30
7476;DHT22;3779;49.216;8.650;2023-02-12T17:48:13;18.00;40.00
7476;DHT22;3779;49.216;8.650;2023-02-12T17:50:59;18.00;40.60
7476;DHT22;3779;49.216;8.650;2023-02-12T17:53:46;18.00;39.90
7476;DHT22;3779;49.216;8.650;2023-02-12T17:56:33;18.00;40.30
7476;DHT22;3779;49.216;8.650;2023-02-12T17:59:19;18.00;40.30
7476;DHT22;3779;49.216;8.650;2023-02-12T18:02:06;18.00;40.80
7476;DHT22;3779;49.216;8.650;2023-02-12T18:04:53;18.10;40.50
7476;DHT22;3779;49.216;8.650;2023-02-12T18:07:41;18.10;40.50
7476;DHT22;3779;49.216;8.650;2023-02-12T18:10:28;18.10;40.50
7476;DHT22;3779;49.216;8.650;2023-02-12T18:13:14;18.30;40.60
7476;DHT22;3779;49.216;8.650;2023-02-12T18:16:00;18.20;40.20
7476;DHT22;3779;49.216;8.650;2023-02-12T18:18:46;18.10;40.10
7476;DHT22;3779;49.216;8.650;2023-02-12T18:21:34;18.10;40.30
7476;DHT22;3779;49.216;8.650;2023-02-12T18:24:22;18.00;40.20
7476;DHT22;3779;49.216;8.650;2023-02-12T18:27:08;18.00;40.40
7476;DHT22;3779;49.216;8.650;2023-02-12T18:29:55;18.00;40.00
7476;DHT22;3779;49.216;8.650;2023-02-12T18:32:41;18.00;40.00
7476;DHT22;3779;49.216;8.650;2023-02-12T18:35:29;18.00;40.50
7476;DHT22;3779;49.216;8.650;2023-02-12T18:38:17;18.00;40.20
7476;DHT22;3779;49.216;8.650;2023-02-12T18:41:14;18.00;39.90
7476;DHT22;3779;49.216;8.650;2023-02-12T18:44:01;18.00;40.00
7476;DHT22;3779;49.216;8.650;2023-02-12T18:46:47;18.00;39.10
7476;DHT22;3779;49.216;8.650;2023-02-12T18:49:33;18.30;39.30
7476;DHT22;3779;49.216;8.650;2023-02-12T18:52:19;17.90;39.40
7476;DHT22;3779;49.216;8.650;2023-02-12T18:55:05;17.90;38.70
7476;DHT22;3779;49.216;8.650;2023-02-12T18:57:52;17.80;39.10
7476;DHT22;3779;49.216;8.650;2023-02-12T19:00:39;17.80;38.60
7476;DHT22;3779;49.216;8.650;2023-02-12T19:03:26;17.80;39.10
7476;DHT22;3779;49.216;8.650;2023-02-12T19:06:13;17.80;38.20
7476;DHT22;3779;49.216;8.650;2023-02-12T19:09:02;17.80;38.70
7476;DHT22;3779;49.216;8.650;2023-02-12T19:11:54;17.80;38.70
7476;DHT22;3779;49.216;8.650;2023-02-12T19:14:41;17.80;38.70
7476;DHT22;3779;49.216;8.650;2023-02-12T19:17:28;17.70;38.80
7476;DHT22;3779;49.216;8.650;2023-02-12T19:20:15;17.70;37.50
7476;DHT22;3779;49.216;8.650;2023-02-12T19:23:01;17.70;38.20
7476;DHT22;3779;49.216;8.650;2023-02-12T19:25:47;17.70;37.70
7476;DHT22;3779;49.216;8.650;2023-02-12T19:28:34;17.70;37.20
7476;DHT22;3779;49.216;8.650;2023-02-12T19:31:24;17.60;37.60
7476;DHT22;3779;49.216;8.650;2023-02-12T19:34:16;17.60;37.70
7476;DHT22;3779;49.216;8.650;2023-02-12T19:37:04;17.60;37.90
7476;DHT22;3779;49.216;8.650;2023-02-12T19:39:50;17.70;37.80
7476;DHT22;3779;49.216;8.650;2023-02-12T19:42:36;17.70;37.30
7476;DHT22;3779;49.216;8.650;2023-02-12T19:45:21;17.70;37.10
7476;DHT22;3779;49.216;8.650;2023-02-12T19:48:09;17.70;37.20
7476;DHT22;3779;49.216;8.650;2023-02-12T19:50:56;17.70;37.30
7476;DHT22;3779;49.216;8.650;2023-02-12T19:53:43;17.70;37.60
7476;DHT22;3779;49.216;8.650;2023-02-12T19:56:34;17.70;37.50
7476;DHT22;3779;49.216;8.650;2023-02-12T19:59:22;17.70;37.20
7476;DHT22;3779;49.216;8.650;2023-02-12T20:02:08;17.70;36.90
7476;DHT22;3779;49.216;8.650;2023-02-12T20:04:54;17.70;36.50
7476;DHT22;3779;49.216;8.650;2023-02-12T20:07:40;17.70;36.40
7476;DHT22;3779;49.216;8.650;2023-02-12T20:10:26;17.70;36.50
7476;DHT22;3779;49.216;8.650;2023-02-12T20:13:12;17.70;36.60
7476;DHT22;3779;49.216;8.650;2023-02-12T20:16:08;17.70;36.50
7476;DHT22;3779;49.216;8.650;2023-02-12T20:18:54;17.70;36.70
7476;DHT22;3779;49.216;8.650;2023-02-12T20:21:40;17.60;36.50
7476;DHT22;3779;49.216;8.650;2023-02-12T20:24:29;17.70;36.80
7476;DHT22;3779;49.216;8.650;2023-02-12T20:27:15;17.60;36.60
7476;DHT22;3779;49.216;8.650;2023-02-12T20:30:01;17.90;36.60
7476;DHT22;3779;49.216;8.650;2023-02-12T20:32:48;17.60;36.00
7476;DHT22;3779;49.216;8.650;2023-02-12T20:35:38;17.70;36.40
7476;DHT22;3779;49.216;8.650;2023-02-12T20:38:24;17.60;36.20
7476;DHT22;3779;49.216;8.650;2023-02-12T20:41:11;17.60;36.10
7476;DHT22;3779;49.216;8.650;2023-02-12T20:43:59;17.60;36.20
7476;DHT22;3779;49.216;8.650;2023-02-12T20:46:47;17.60;36.00
7476;DHT22;3779;49.216;8.650;2023-02-12T20:49:33;17.60;36.30
7476;DHT22;3779;49.216;8.650;2023-02-12T20:52:21;17.60;36.10
7476;DHT22;3779;49.216;8.650;2023-02-12T20:55:08;17.60;36.50
7476;DHT22;3779;49.216;8.650;2023-02-12T20:57:54;17.60;36.20